sensor_id;sensor_type;location;lat;lon;timestamp;pressure;altitude;pressure_sealevel;temperature;humidity
13734;BME280;43298;52.560;13.508;2023-04-30T00:01:47;101413.13;;;7.65;100.00
13734;BME280;43298;52.560;13.508;2023-04-30T00:04:13;101411.50;;;7.61;100.00
13734;BME280;43298;52.560;13.508;2023-04-30T00:06:38;101413.38;;;7.53;100.00
13734;BME280;43298;52.560;13.508;2023-04-30T00:09:05;101409.22;;;7.46;100.00
13734;BME280;43298;52.560;13.508;2023-04-30T00:11:30;101417.81;;;7.45;100.00
13734;BME280;43298;52.560;13.508;2023-04-30T00:13:56;101412.03;;;7.34;100.00
13734;BME280;43298;52.560;13.508;2023-04-30T00:16:22;101413.47;;;7.47;100.00
13734;BME280;43298;52.560;13.508;2023-04-30T00:18:48;101423.50;;;7.62;100.00
13734;BME280;43298;52.560;13.508;2023-04-30T00:21:13;101418.56;;;7.52;100.00
13734;BME280;43298;52.560;13.508;2023-04-30T00:23:39;101417.78;;;7.48;100.00
13734;BME280;43298;52.560;13.508;2023-04-30T00:26:05;101427.34;;;7.39;100.00
13734;BME280;43298;52.560;13.508;2023-04-30T00:28:31;101425.97;;;7.21;100.00
13734;BME280;43298;52.560;13.508;2023-04-30T00:30:57;101432.31;;;7.01;100.00
13734;BME280;43298;52.560;13.508;2023-04-30T00:33:23;101429.13;;;6.85;100.00
13734;BME280;43298;52.560;13.508;2023-04-30T00:35:49;101427.41;;;6.86;100.00
13734;BME280;43298;52.560;13.508;2023-04-30T00:38:15;101431.56;;;6.93;100.00
13734;BME280;43298;52.560;13.508;2023-04-30T00:40:41;101432.50;;;6.87;100.00
13734;BME280;43298;52.560;13.508;2023-04-30T00:43:08;101443.84;;;6.76;100.00
13734;BME280;43298;52.560;13.508;2023-04-30T00:45:34;101445.75;;;6.62;100.00
13734;BME280;43298;52.560;13.508;2023-04-30T00:48:00;101450.09;;;6.57;100.00
13734;BME280;43298;52.560;13.508;2023-04-30T00:50:26;101457.06;;;6.50;100.00
13734;BME280;43298;52.560;13.508;2023-04-30T00:52:52;101451.94;;;6.49;100.00
13734;BME280;43298;52.560;13.508;2023-04-30T00:55:18;101455.38;;;6.49;100.00
13734;BME280;43298;52.560;13.508;2023-04-30T00:57:44;101462.34;;;6.38;100.00
13734;BME280;43298;52.560;13.508;2023-04-30T01:00:11;101458.19;;;6.28;100.00
13734;BME280;43298;52.560;13.508;2023-04-30T01:02:39;101467.66;;;6.23;100.00
13734;BME280;43298;52.560;13.508;2023-04-30T01:05:06;101466.00;;;6.19;100.00
13734;BME280;43298;52.560;13.508;2023-04-30T01:07:36;101472.03;;;6.16;100.00
13734;BME280;43298;52.560;13.508;2023-04-30T01:10:12;101472.16;;;6.09;100.00
13734;BME280;43298;52.560;13.508;2023-04-30T01:12:58;101479.19;;;5.90;100.00
13734;BME280;43298;52.560;13.508;2023-04-30T01:15:46;101474.06;;;5.90;100.00
13734;BME280;43298;52.560;13.508;2023-04-30T01:18:50;101485.22;;;5.88;100.00
13734;BME280;43298;52.560;13.508;2023-04-30T01:21:18;101488.72;;;5.81;100.00
13734;BME280;43298;52.560;13.508;2023-04-30T01:26:47;101491.25;;;5.79;100.00
13734;BME280;43298;52.560;13.508;2023-04-30T01:29:18;101486.13;;;5.78;100.00
13734;BME280;43298;52.560;13.508;2023-04-30T01:31:45;101486.19;;;5.70;100.00
13734;BME280;43298;52.560;13.508;2023-04-30T01:34:11;101487.09;;;5.66;100.00
13734;BME280;43298;52.560;13.508;2023-04-30T01:37:38;101489.72;;;5.60;100.00
13734;BME280;43298;52.560;13.508;2023-04-30T01:40:23;101494.81;;;5.63;100.00
13734;BME280;43298;52.560;13.508;2023-04-30T01:43:32;101495.69;;;5.64;100.00
13734;BME280;43298;52.560;13.508;2023-04-30T01:46:25;101495.72;;;5.58;100.00
13734;BME280;43298;52.560;13.508;2023-04-30T01:51:44;101499.31;;;5.42;100.00
13734;BME280;43298;52.560;13.508;2023-04-30T01:54:44;101503.69;;;5.28;100.00
13734;BME280;43298;52.560;13.508;2023-04-30T01:57:22;101511.50;;;5.13;100.00
13734;BME280;43298;52.560;13.508;2023-04-30T01:59:50;101522.66;;;5.06;100.00
13734;BME280;43298;52.560;13.508;2023-04-30T02:02:16;101525.25;;;5.03;100.00
13734;BME280;43298;52.560;13.508;2023-04-30T02:04:42;101526.91;;;5.08;100.00
13734;BME280;43298;52.560;13.508;2023-04-30T02:07:07;101519.22;;;5.11;100.00
13734;BME280;43298;52.560;13.508;2023-04-30T02:09:33;101521.78;;;5.07;100.00
13734;BME280;43298;52.560;13.508;2023-04-30T02:11:59;101533.81;;;4.99;100.00
13734;BME280;43298;52.560;13.508;2023-04-30T02:14:26;101534.72;;;4.92;100.00
13734;BME280;43298;52.560;13.508;2023-04-30T02:16:52;101540.69;;;4.91;100.00
13734;BME280;43298;52.560;13.508;2023-04-30T02:19:17;101538.13;;;4.89;100.00
13734;BME280;43298;52.560;13.508;2023-04-30T02:21:43;101538.16;;;4.86;100.00
13734;BME280;43298;52.560;13.508;2023-04-30T02:24:09;101534.75;;;4.84;100.00
13734;BME280;43298;52.560;13.508;2023-04-30T02:26:35;101543.31;;;4.79;100.00
13734;BME280;43298;52.560;13.508;2023-04-30T02:29:01;101543.31;;;4.77;100.00
13734;BME280;43298;52.560;13.508;2023-04-30T02:31:26;101550.97;;;4.86;100.00
13734;BME280;43298;52.560;13.508;2023-04-30T02:33:52;101544.97;;;4.89;100.00
13734;BME280;43298;52.560;13.508;2023-04-30T02:36:18;101545.81;;;4.89;100.00
13734;BME280;43298;52.560;13.508;2023-04-30T02:38:44;101550.94;;;4.88;100.00
13734;BME280;43298;52.560;13.508;2023-04-30T02:41:10;101559.47;;;4.90;100.00
13734;BME280;43298;52.560;13.508;2023-04-30T02:43:35;101551.81;;;4.85;100.00
13734;BME280;43298;52.560;13.508;2023-04-30T02:46:01;101547.56;;;4.86;100.00
13734;BME280;43298;52.560;13.508;2023-04-30T02:48:27;101553.53;;;4.85;100.00
13734;BME280;43298;52.560;13.508;2023-04-30T02:50:53;101549.22;;;4.91;100.00
13734;BME280;43298;52.560;13.508;2023-04-30T02:53:19;101564.53;;;5.00;100.00
13734;BME280;43298;52.560;13.508;2023-04-30T02:55:44;101560.28;;;4.98;100.00
13734;BME280;43298;52.560;13.508;2023-04-30T02:58:10;101561.13;;;5.00;100.00
13734;BME280;43298;52.560;13.508;2023-04-30T03:00:36;101562.84;;;4.99;100.00
13734;BME280;43298;52.560;13.508;2023-04-30T03:03:02;101561.97;;;5.00;100.00
13734;BME280;43298;52.560;13.508;2023-04-30T03:05:28;101561.13;;;5.00;100.00
13734;BME280;43298;52.560;13.508;2023-04-30T03:07:54;101565.41;;;4.96;100.00
13734;BME280;43298;52.560;13.508;2023-04-30T03:10:20;101568.84;;;4.95;100.00
13734;BME280;43298;52.560;13.508;2023-04-30T03:12:46;101578.28;;;4.90;100.00
13734;BME280;43298;52.560;13.508;2023-04-30T03:15:12;101578.28;;;4.86;100.00
13734;BME280;43298;52.560;13.508;2023-04-30T03:17:37;101579.13;;;4.88;100.00
13734;BME280;43298;52.560;13.508;2023-04-30T03:20:04;101577.44;;;4.85;100.00
13734;BME280;43298;52.560;13.508;2023-04-30T03:22:30;101581.69;;;4.88;100.00
13734;BME280;43298;52.560;13.508;2023-04-30T03:24:55;101579.16;;;4.86;100.00
13734;BME280;43298;52.560;13.508;2023-04-30T03:27:21;101581.75;;;4.80;100.00
13734;BME280;43298;52.560;13.508;2023-04-30T03:29:47;101580.94;;;4.65;100.00
13734;BME280;43298;52.560;13.508;2023-04-30T03:32:13;101581.81;;;4.59;100.00
13734;BME280;43298;52.560;13.508;2023-04-30T03:34:39;101580.16;;;4.52;100.00
13734;BME280;43298;52.560;13.508;2023-04-30T03:37:05;101582.72;;;4.52;100.00
13734;BME280;43298;52.560;13.508;2023-04-30T03:39:30;101580.16;;;4.54;100.00
13734;BME280;43298;52.560;13.508;2023-04-30T03:41:56;101585.25;;;4.60;100.00
13734;BME280;43298;52.560;13.508;2023-04-30T03:44:22;101596.34;;;4.59;100.00
13734;BME280;43298;52.560;13.508;2023-04-30T03:46:48;101595.50;;;4.61;100.00
13734;BME280;43298;52.560;13.508;2023-04-30T03:49:14;101601.44;;;4.60;100.00
13734;BME280;43298;52.560;13.508;2023-04-30T03:51:40;101604.88;;;4.62;100.00
13734;BME280;43298;52.560;13.508;2023-04-30T03:54:07;101597.19;;;4.61;100.00
13734;BME280;43298;52.560;13.508;2023-04-30T03:56:33;101607.44;;;4.59;100.00
13734;BME280;43298;52.560;13.508;2023-04-30T03:59:00;101603.19;;;4.61;100.00
13734;BME280;43298;52.560;13.508;2023-04-30T04:01:28;101611.69;;;4.57;100.00
13734;BME280;43298;52.560;13.508;2023-04-30T04:03:53;101610.88;;;4.52;100.00
13734;BME280;43298;52.560;13.508;2023-04-30T04:06:20;101613.44;;;4.52;100.00
13734;BME280;43298;52.560;13.508;2023-04-30T04:08:46;101623.66;;;4.58;100.00
13734;BME280;43298;52.560;13.508;2023-04-30T04:11:12;101615.94;;;4.69;100.00
13734;BME280;43298;52.560;13.508;2023-04-30T04:13:38;101621.91;;;4.74;100.00
13734;BME280;43298;52.560;13.508;2023-04-30T04:16:04;101617.63;;;4.76;100.00
13734;BME280;43298;52.560;13.508;2023-04-30T04:18:30;101628.72;;;4.78;100.00
13734;BME280;43298;52.560;13.508;2023-04-30T04:20:55;101633.00;;;4.76;100.00
13734;BME280;43298;52.560;13.508;2023-04-30T04:23:22;101633.00;;;4.77;100.00
13734;BME280;43298;52.560;13.508;2023-04-30T04:25:47;101630.41;;;4.80;100.00
13734;BME280;43298;52.560;13.508;2023-04-30T04:28:17;101628.69;;;4.82;100.00
13734;BME280;43298;52.560;13.508;2023-04-30T04:30:43;101634.66;;;4.89;100.00
13734;BME280;43298;52.560;13.508;2023-04-30T04:33:09;101637.22;;;4.93;100.00
13734;BME280;43298;52.560;13.508;2023-04-30T04:35:36;101644.84;;;4.98;100.00
13734;BME280;43298;52.560;13.508;2023-04-30T04:38:02;101639.72;;;5.01;100.00
13734;BME280;43298;52.560;13.508;2023-04-30T04:40:29;101638.84;;;5.08;100.00
13734;BME280;43298;52.560;13.508;2023-04-30T04:42:55;101643.94;;;5.14;100.00
13734;BME280;43298;52.560;13.508;2023-04-30T04:45:21;101652.44;;;5.16;100.00
13734;BME280;43298;52.560;13.508;2023-04-30T04:47:47;101660.13;;;5.22;100.00
13734;BME280;43298;52.560;13.508;2023-04-30T04:50:13;101653.25;;;5.27;100.00
13734;BME280;43298;52.560;13.508;2023-04-30T04:52:39;101654.09;;;5.29;100.00
13734;BME280;43298;52.560;13.508;2023-04-30T04:55:05;101665.16;;;5.37;100.00
13734;BME280;43298;52.560;13.508;2023-04-30T04:57:31;101666.84;;;5.41;100.00
13734;BME280;43298;52.560;13.508;2023-04-30T04:59:57;101669.38;;;5.47;100.00
13734;BME280;43298;52.560;13.508;2023-04-30T05:02:23;101670.22;;;5.50;100.00
13734;BME280;43298;52.560;13.508;2023-04-30T05:04:49;101678.75;;;5.52;100.00
13734;BME280;43298;52.560;13.508;2023-04-30T05:07:18;101679.59;;;5.57;100.00
13734;BME280;43298;52.560;13.508;2023-04-30T05:09:45;101680.44;;;5.55;100.00
13734;BME280;43298;52.560;13.508;2023-04-30T05:12:12;101680.41;;;5.64;100.00
13734;BME280;43298;52.560;13.508;2023-04-30T05:14:38;101676.09;;;5.67;100.00
13734;BME280;43298;52.560;13.508;2023-04-30T05:17:04;101691.44;;;5.75;100.00
13734;BME280;43298;52.560;13.508;2023-04-30T05:19:30;101694.00;;;5.75;100.00
13734;BME280;43298;52.560;13.508;2023-04-30T05:21:56;101697.38;;;5.84;100.00
13734;BME280;43298;52.560;13.508;2023-04-30T05:24:23;101692.22;;;5.92;100.00
13734;BME280;43298;52.560;13.508;2023-04-30T05:26:48;101699.03;;;5.94;100.00
13734;BME280;43298;52.560;13.508;2023-04-30T05:29:14;101699.81;;;6.04;100.00
13734;BME280;43298;52.560;13.508;2023-04-30T05:31:40;101702.34;;;6.10;100.00
13734;BME280;43298;52.560;13.508;2023-04-30T05:34:06;101710.84;;;6.12;100.00
13734;BME280;43298;52.560;13.508;2023-04-30T05:36:32;101704.00;;;6.17;100.00
13734;BME280;43298;52.560;13.508;2023-04-30T05:38:58;101704.75;;;6.28;100.00
13734;BME280;43298;52.560;13.508;2023-04-30T05:41:23;101716.72;;;6.29;100.00
13734;BME280;43298;52.560;13.508;2023-04-30T05:43:50;101726.03;;;6.41;100.00
13734;BME280;43298;52.560;13.508;2023-04-30T05:46:15;101716.53;;;6.50;100.00
13734;BME280;43298;52.560;13.508;2023-04-30T05:48:41;101715.56;;;6.60;100.00
13734;BME280;43298;52.560;13.508;2023-04-30T05:51:07;101713.81;;;6.64;100.00
13734;BME280;43298;52.560;13.508;2023-04-30T05:53:33;101713.63;;;6.82;100.00
13734;BME280;43298;52.560;13.508;2023-04-30T05:55:59;101714.25;;;7.02;100.00
13734;BME280;43298;52.560;13.508;2023-04-30T05:58:25;101714.22;;;7.06;100.00
13734;BME280;43298;52.560;13.508;2023-04-30T06:00:51;101723.44;;;7.22;100.00
13734;BME280;43298;52.560;13.508;2023-04-30T06:03:20;101718.97;;;7.98;100.00
13734;BME280;43298;52.560;13.508;2023-04-30T06:05:46;101723.31;;;8.93;100.00
13734;BME280;43298;52.560;13.508;2023-04-30T06:08:12;101723.34;;;8.92;100.00
13734;BME280;43298;52.560;13.508;2023-04-30T06:10:38;101730.94;;;9.42;100.00
13734;BME280;43298;52.560;13.508;2023-04-30T06:13:05;101730.03;;;9.45;100.00
13734;BME280;43298;52.560;13.508;2023-04-30T06:15:31;101726.94;;;9.27;100.00
13734;BME280;43298;52.560;13.508;2023-04-30T06:17:57;101727.00;;;9.24;100.00
13734;BME280;43298;52.560;13.508;2023-04-30T06:20:23;101740.44;;;9.40;100.00
13734;BME280;43298;52.560;13.508;2023-04-30T06:22:49;101743.91;;;9.77;100.00
13734;BME280;43298;52.560;13.508;2023-04-30T06:25:14;101750.47;;;9.54;100.00
13734;BME280;43298;52.560;13.508;2023-04-30T06:27:40;101745.16;;;9.61;100.00
13734;BME280;43298;52.560;13.508;2023-04-30T06:30:07;101749.09;;;9.38;100.00
13734;BME280;43298;52.560;13.508;2023-04-30T06:32:33;101758.16;;;9.57;100.00
13734;BME280;43298;52.560;13.508;2023-04-30T06:34:59;101760.47;;;9.69;100.00
13734;BME280;43298;52.560;13.508;2023-04-30T06:37:25;101765.47;;;10.16;100.00
13734;BME280;43298;52.560;13.508;2023-04-30T06:39:51;101763.78;;;10.13;100.00
13734;BME280;43298;52.560;13.508;2023-04-30T06:42:16;101758.13;;;9.98;100.00
13734;BME280;43298;52.560;13.508;2023-04-30T06:44:42;101759.00;;;10.33;100.00
13734;BME280;43298;52.560;13.508;2023-04-30T06:47:08;101756.22;;;10.06;100.00
13734;BME280;43298;52.560;13.508;2023-04-30T06:49:34;101755.19;;;9.75;100.00
13734;BME280;43298;52.560;13.508;2023-04-30T06:52:00;101764.06;;;10.00;100.00
13734;BME280;43298;52.560;13.508;2023-04-30T06:54:26;101754.56;;;10.02;100.00
13734;BME280;43298;52.560;13.508;2023-04-30T06:56:52;101756.06;;;9.74;100.00
13734;BME280;43298;52.560;13.508;2023-04-30T06:59:18;101758.16;;;9.96;100.00
13734;BME280;43298;52.560;13.508;2023-04-30T07:01:44;101757.09;;;10.06;100.00
13734;BME280;43298;52.560;13.508;2023-04-30T07:04:10;101764.97;;;9.99;100.00
13734;BME280;43298;52.560;13.508;2023-04-30T07:06:36;101754.41;;;9.71;100.00
13734;BME280;43298;52.560;13.508;2023-04-30T07:09:02;101754.50;;;10.06;100.00
13734;BME280;43298;52.560;13.508;2023-04-30T07:11:28;101752.72;;;10.77;100.00
13734;BME280;43298;52.560;13.508;2023-04-30T07:13:56;101758.41;;;11.50;100.00
13734;BME280;43298;52.560;13.508;2023-04-30T07:16:24;101746.75;;;11.05;100.00
13734;BME280;43298;52.560;13.508;2023-04-30T07:18:52;101757.63;;;11.18;100.00
13734;BME280;43298;52.560;13.508;2023-04-30T07:21:18;101751.19;;;11.02;100.00
13734;BME280;43298;52.560;13.508;2023-04-30T07:23:43;101748.63;;;11.00;100.00
13734;BME280;43298;52.560;13.508;2023-04-30T07:26:10;101760.38;;;11.42;100.00
13734;BME280;43298;52.560;13.508;2023-04-30T07:28:35;101749.97;;;11.15;100.00
13734;BME280;43298;52.560;13.508;2023-04-30T07:31:01;101765.22;;;11.24;100.00
13734;BME280;43298;52.560;13.508;2023-04-30T07:33:27;101761.56;;;11.89;100.00
13734;BME280;43298;52.560;13.508;2023-04-30T07:35:53;101759.34;;;12.58;100.00
13734;BME280;43298;52.560;13.508;2023-04-30T07:38:20;101759.13;;;12.12;100.00
13734;BME280;43298;52.560;13.508;2023-04-30T07:40:46;101757.66;;;11.47;100.00
13734;BME280;43298;52.560;13.508;2023-04-30T07:43:12;101753.69;;;11.35;100.00
13734;BME280;43298;52.560;13.508;2023-04-30T07:45:37;101751.56;;;11.19;100.00
13734;BME280;43298;52.560;13.508;2023-04-30T07:48:04;101753.41;;;11.73;100.00
13734;BME280;43298;52.560;13.508;2023-04-30T07:50:30;101762.72;;;12.08;100.00
13734;BME280;43298;52.560;13.508;2023-04-30T07:52:58;101759.53;;;11.71;100.00
13734;BME280;43298;52.560;13.508;2023-04-30T07:55:25;101769.63;;;11.51;100.00
13734;BME280;43298;52.560;13.508;2023-04-30T07:57:51;101768.78;;;11.50;100.00
13734;BME280;43298;52.560;13.508;2023-04-30T08:00:17;101767.06;;;11.80;100.00
13734;BME280;43298;52.560;13.508;2023-04-30T08:02:42;101771.22;;;11.85;98.11
13734;BME280;43298;52.560;13.508;2023-04-30T08:05:10;101773.97;;;12.07;95.53
13734;BME280;43298;52.560;13.508;2023-04-30T08:07:36;101766.75;;;11.89;94.75
13734;BME280;43298;52.560;13.508;2023-04-30T08:10:02;101763.00;;;11.99;94.34
13734;BME280;43298;52.560;13.508;2023-04-30T08:12:28;101775.97;;;12.25;91.72
13734;BME280;43298;52.560;13.508;2023-04-30T08:15:05;101768.72;;;12.36;90.66
13734;BME280;43298;52.560;13.508;2023-04-30T08:17:32;101762.84;;;13.06;88.87
13734;BME280;43298;52.560;13.508;2023-04-30T08:20:00;101763.31;;;13.42;88.03
13734;BME280;43298;52.560;13.508;2023-04-30T08:22:26;101768.41;;;13.20;86.80
13734;BME280;43298;52.560;13.508;2023-04-30T08:24:52;101761.91;;;13.09;88.10
13734;BME280;43298;52.560;13.508;2023-04-30T08:27:19;101768.56;;;13.16;86.33
13734;BME280;43298;52.560;13.508;2023-04-30T08:29:45;101775.09;;;12.52;84.39
13734;BME280;43298;52.560;13.508;2023-04-30T08:32:11;101773.00;;;12.63;84.92
13734;BME280;43298;52.560;13.508;2023-04-30T08:34:37;101768.25;;;12.76;84.11
13734;BME280;43298;52.560;13.508;2023-04-30T08:37:06;101768.34;;;12.97;82.12
13734;BME280;43298;52.560;13.508;2023-04-30T08:39:31;101777.81;;;13.00;78.55
13734;BME280;43298;52.560;13.508;2023-04-30T08:42:01;101768.09;;;13.75;76.32
13734;BME280;43298;52.560;13.508;2023-04-30T08:44:29;101769.91;;;13.50;72.26
13734;BME280;43298;52.560;13.508;2023-04-30T08:46:56;101768.97;;;13.74;69.46
13734;BME280;43298;52.560;13.508;2023-04-30T08:49:25;101770.34;;;13.61;68.91
13734;BME280;43298;52.560;13.508;2023-04-30T08:51:52;101768.81;;;13.33;66.83
13734;BME280;43298;52.560;13.508;2023-04-30T08:54:18;101772.03;;;13.62;66.69
13734;BME280;43298;52.560;13.508;2023-04-30T08:56:45;101765.81;;;13.20;68.29
13734;BME280;43298;52.560;13.508;2023-04-30T08:59:12;101767.78;;;13.14;72.14
13734;BME280;43298;52.560;13.508;2023-04-30T09:01:38;101774.97;;;13.76;72.69
13734;BME280;43298;52.560;13.508;2023-04-30T09:04:05;101768.75;;;13.80;71.61
13734;BME280;43298;52.560;13.508;2023-04-30T09:06:31;101778.81;;;13.89;71.39
13734;BME280;43298;52.560;13.508;2023-04-30T09:08:56;101774.44;;;13.90;68.98
13734;BME280;43298;52.560;13.508;2023-04-30T09:11:32;101772.81;;;13.87;65.11
13734;BME280;43298;52.560;13.508;2023-04-30T09:14:00;101774.16;;;13.97;66.90
13734;BME280;43298;52.560;13.508;2023-04-30T09:16:28;101768.88;;;13.99;62.89
13734;BME280;43298;52.560;13.508;2023-04-30T09:18:58;101783.09;;;13.67;65.66
13734;BME280;43298;52.560;13.508;2023-04-30T09:21:36;101778.38;;;13.55;67.75
13734;BME280;43298;52.560;13.508;2023-04-30T09:24:04;101783.53;;;14.01;65.16
13734;BME280;43298;52.560;13.508;2023-04-30T09:26:32;101778.84;;;13.88;62.34
13734;BME280;43298;52.560;13.508;2023-04-30T09:28:59;101782.81;;;14.41;63.25
13734;BME280;43298;52.560;13.508;2023-04-30T09:31:27;101770.28;;;15.11;61.47
13734;BME280;43298;52.560;13.508;2023-04-30T09:33:53;101774.91;;;14.64;61.48
13734;BME280;43298;52.560;13.508;2023-04-30T09:36:19;101770.84;;;14.57;62.64
13734;BME280;43298;52.560;13.508;2023-04-30T09:38:45;101774.06;;;15.03;62.33
13734;BME280;43298;52.560;13.508;2023-04-30T09:41:40;101785.56;;;14.58;62.76
13734;BME280;43298;52.560;13.508;2023-04-30T09:44:06;101779.72;;;14.53;64.07
13734;BME280;43298;52.560;13.508;2023-04-30T09:46:34;101786.53;;;14.35;59.36
13734;BME280;43298;52.560;13.508;2023-04-30T09:49:04;101773.38;;;15.19;57.55
13734;BME280;43298;52.560;13.508;2023-04-30T09:51:31;101773.22;;;15.03;55.11
13734;BME280;43298;52.560;13.508;2023-04-30T09:53:57;101782.19;;;14.96;56.11
13734;BME280;43298;52.560;13.508;2023-04-30T09:56:24;101779.88;;;14.48;56.07
13734;BME280;43298;52.560;13.508;2023-04-30T09:58:53;101777.66;;;14.81;59.69
13734;BME280;43298;52.560;13.508;2023-04-30T10:01:25;101771.47;;;14.83;57.60
13734;BME280;43298;52.560;13.508;2023-04-30T10:03:52;101766.75;;;14.08;57.90
13734;BME280;43298;52.560;13.508;2023-04-30T10:06:20;101770.41;;;14.26;59.11
13734;BME280;43298;52.560;13.508;2023-04-30T10:08:56;101764.03;;;14.54;59.27
13734;BME280;43298;52.560;13.508;2023-04-30T10:11:27;101767.78;;;14.47;57.98
13734;BME280;43298;52.560;13.508;2023-04-30T10:14:07;101767.78;;;14.47;58.93
13734;BME280;43298;52.560;13.508;2023-04-30T10:16:56;101764.66;;;15.20;56.70
13734;BME280;43298;52.560;13.508;2023-04-30T10:19:27;101750.22;;;14.52;56.37
13734;BME280;43298;52.560;13.508;2023-04-30T10:21:55;101759.81;;;15.31;55.04
13734;BME280;43298;52.560;13.508;2023-04-30T10:24:21;101748.13;;;15.00;57.81
13734;BME280;43298;52.560;13.508;2023-04-30T10:26:48;101756.78;;;15.01;57.41
13734;BME280;43298;52.560;13.508;2023-04-30T10:29:16;101758.56;;;15.00;57.07
13734;BME280;43298;52.560;13.508;2023-04-30T10:31:47;101756.50;;;14.68;55.50
13734;BME280;43298;52.560;13.508;2023-04-30T10:37:03;101749.78;;;14.63;53.61
13734;BME280;43298;52.560;13.508;2023-04-30T10:39:32;101743.75;;;15.01;55.57
13734;BME280;43298;52.560;13.508;2023-04-30T10:42:02;101753.53;;;15.35;55.27
13734;BME280;43298;52.560;13.508;2023-04-30T10:44:36;101753.50;;;15.36;54.28
13734;BME280;43298;52.560;13.508;2023-04-30T10:47:05;101741.16;;;15.77;55.73
13734;BME280;43298;52.560;13.508;2023-04-30T10:49:31;101738.44;;;16.15;55.30
13734;BME280;43298;52.560;13.508;2023-04-30T10:52:03;101730.13;;;16.60;57.07
13734;BME280;43298;52.560;13.508;2023-04-30T10:54:35;101733.19;;;16.68;51.80
13734;BME280;43298;52.560;13.508;2023-04-30T10:57:13;101738.59;;;16.29;55.59
13734;BME280;43298;52.560;13.508;2023-04-30T11:02:45;101734.91;;;15.44;53.26
13734;BME280;43298;52.560;13.508;2023-04-30T11:05:16;101731.31;;;16.36;53.43
13734;BME280;43298;52.560;13.508;2023-04-30T11:07:56;101731.66;;;16.64;53.25
13734;BME280;43298;52.560;13.508;2023-04-30T11:10:29;101723.13;;;17.58;53.30
13734;BME280;43298;52.560;13.508;2023-04-30T11:12:56;101715.53;;;17.05;50.41
13734;BME280;43298;52.560;13.508;2023-04-30T11:15:33;101724.50;;;16.67;51.18
13734;BME280;43298;52.560;13.508;2023-04-30T11:17:59;101718.41;;;17.16;51.41
13734;BME280;43298;52.560;13.508;2023-04-30T11:20:26;101728.69;;;16.19;51.88
13734;BME280;43298;52.560;13.508;2023-04-30T11:23:27;101724.06;;;16.59;52.51
13734;BME280;43298;52.560;13.508;2023-04-30T11:25:55;101724.22;;;17.21;52.21
13734;BME280;43298;52.560;13.508;2023-04-30T11:28:27;101725.75;;;16.08;51.85
13734;BME280;43298;52.560;13.508;2023-04-30T11:30:59;101719.97;;;17.36;52.05
13734;BME280;43298;52.560;13.508;2023-04-30T11:33:33;101723.56;;;16.68;52.25
13734;BME280;43298;52.560;13.508;2023-04-30T11:36:01;101717.25;;;16.38;53.14
13734;BME280;43298;52.560;13.508;2023-04-30T11:38:34;101720.44;;;17.91;54.11
13734;BME280;43298;52.560;13.508;2023-04-30T11:41:01;101715.28;;;16.26;50.57
13734;BME280;43298;52.560;13.508;2023-04-30T11:43:30;101712.03;;;16.89;51.55
13734;BME280;43298;52.560;13.508;2023-04-30T11:48:38;101722.97;;;17.61;49.37
13734;BME280;43298;52.560;13.508;2023-04-30T11:51:21;101713.06;;;17.97;49.49
13734;BME280;43298;52.560;13.508;2023-04-30T11:53:51;101710.31;;;17.05;50.11
13734;BME280;43298;52.560;13.508;2023-04-30T11:56:21;101711.72;;;17.59;50.74
13734;BME280;43298;52.560;13.508;2023-04-30T11:58:50;101705.28;;;16.68;51.24
13734;BME280;43298;52.560;13.508;2023-04-30T12:01:16;101707.38;;;17.27;52.08
13734;BME280;43298;52.560;13.508;2023-04-30T12:03:48;101698.88;;;17.23;49.87
13734;BME280;43298;52.560;13.508;2023-04-30T12:06:25;101696.81;;;16.97;51.69
13734;BME280;43298;52.560;13.508;2023-04-30T12:08:58;101701.25;;;17.28;52.14
13734;BME280;43298;52.560;13.508;2023-04-30T12:11:30;101700.44;;;18.19;51.51
13734;BME280;43298;52.560;13.508;2023-04-30T12:16:51;101701.84;;;19.12;47.52
13734;BME280;43298;52.560;13.508;2023-04-30T12:19:19;101699.56;;;18.92;48.79
13734;BME280;43298;52.560;13.508;2023-04-30T12:21:46;101707.19;;;17.62;49.66
13734;BME280;43298;52.560;13.508;2023-04-30T12:24:14;101708.59;;;17.99;49.04
13734;BME280;43298;52.560;13.508;2023-04-30T12:26:41;101710.94;;;17.26;48.16
13734;BME280;43298;52.560;13.508;2023-04-30T12:29:15;101707.75;;;17.83;49.14
13734;BME280;43298;52.560;13.508;2023-04-30T12:31:43;101708.78;;;17.80;45.93
13734;BME280;43298;52.560;13.508;2023-04-30T12:34:12;101706.81;;;17.84;47.81
13734;BME280;43298;52.560;13.508;2023-04-30T12:36:40;101695.66;;;18.85;48.13
13734;BME280;43298;52.560;13.508;2023-04-30T12:39:11;101693.50;;;18.77;45.66
13734;BME280;43298;52.560;13.508;2023-04-30T12:41:48;101692.59;;;17.43;47.32
13734;BME280;43298;52.560;13.508;2023-04-30T12:44:22;101699.91;;;17.99;47.68
13734;BME280;43298;52.560;13.508;2023-04-30T12:46:50;101686.75;;;18.30;46.55
13734;BME280;43298;52.560;13.508;2023-04-30T12:49:32;101693.50;;;17.57;48.91
13734;BME280;43298;52.560;13.508;2023-04-30T12:52:11;101689.06;;;16.79;50.51
13734;BME280;43298;52.560;13.508;2023-04-30T12:54:38;101677.63;;;17.29;49.26
13734;BME280;43298;52.560;13.508;2023-04-30T12:57:07;101670.31;;;18.12;47.43
13734;BME280;43298;52.560;13.508;2023-04-30T13:02:12;101677.22;;;17.68;47.23
13734;BME280;43298;52.560;13.508;2023-04-30T13:04:42;101664.13;;;18.43;47.95